sensor_id;sensor_type;location;lat;lon;timestamp;P1;durP1;ratioP1;P2;durP2;ratioP2
58244;SDS011;44550;43.864;25.986;2023-12-14T06:22:14;364.33;;;141.77;;
58244;SDS011;44550;43.864;25.986;2023-12-14T06:26:19;373.17;;;145.05;;
58244;SDS011;44550;43.864;25.986;2023-12-14T06:30:19;1075.30;;;349.40;;
58244;SDS011;44550;43.864;25.986;2023-12-14T06:34:22;185.48;;;104.18;;
58244;SDS011;44550;43.864;25.986;2023-12-14T06:38:31;122.15;;;66.45;;
58244;SDS011;44550;43.864;25.986;2023-12-14T06:42:31;637.60;;;276.13;;
58244;SDS011;44550;43.864;25.986;2023-12-14T06:46:33;553.42;;;231.93;;
58244;SDS011;44550;43.864;25.986;2023-12-14T06:50:36;129.00;;;63.42;;
58244;SDS011;44550;43.864;25.986;2023-12-14T06:54:39;167.82;;;73.22;;
58244;SDS011;44550;43.864;25.986;2023-12-14T06:58:43;59.55;;;36.47;;
58244;SDS011;44550;43.864;25.986;2023-12-14T07:02:47;56.05;;;33.80;;
58244;SDS011;44550;43.864;25.986;2023-12-14T07:06:52;59.40;;;37.42;;
58244;SDS011;44550;43.864;25.986;2023-12-14T07:11:00;66.80;;;43.05;;
58244;SDS011;44550;43.864;25.986;2023-12-14T07:15:06;51.42;;;33.85;;
58244;SDS011;44550;43.864;25.986;2023-12-14T07:19:32;55.10;;;37.58;;
58244;SDS011;44550;43.864;25.986;2023-12-14T07:23:35;62.88;;;38.47;;
58244;SDS011;44550;43.864;25.986;2023-12-14T07:27:39;57.75;;;34.95;;
58244;SDS011;44550;43.864;25.986;2023-12-14T07:32:11;50.38;;;31.92;;
58244;SDS011;44550;43.864;25.986;2023-12-14T07:36:19;45.53;;;28.35;;
58244;SDS011;44550;43.864;25.986;2023-12-14T07:40:20;58.53;;;37.40;;
58244;SDS011;44550;43.864;25.986;2023-12-14T07:44:29;45.85;;;29.77;;
58244;SDS011;44550;43.864;25.986;2023-12-14T07:52:39;44.78;;;29.63;;
58244;SDS011;44550;43.864;25.986;2023-12-14T07:56:42;105.85;;;67.43;;
58244;SDS011;44550;43.864;25.986;2023-12-14T08:00:49;73.70;;;52.67;;
58244;SDS011;44550;43.864;25.986;2023-12-14T08:04:56;58.58;;;32.38;;
58244;SDS011;44550;43.864;25.986;2023-12-14T08:08:59;52.42;;;38.53;;
58244;SDS011;44550;43.864;25.986;2023-12-14T08:13:03;55.20;;;32.75;;
58244;SDS011;44550;43.864;25.986;2023-12-14T08:17:08;52.00;;;34.92;;
58244;SDS011;44550;43.864;25.986;2023-12-14T08:21:13;64.25;;;40.25;;
58244;SDS011;44550;43.864;25.986;2023-12-14T08:25:13;53.90;;;35.05;;
58244;SDS011;44550;43.864;25.986;2023-12-14T08:33:29;56.30;;;33.47;;
58244;SDS011;44550;43.864;25.986;2023-12-14T08:37:33;53.08;;;36.55;;
58244;SDS011;44550;43.864;25.986;2023-12-14T08:41:37;62.50;;;36.72;;
58244;SDS011;44550;43.864;25.986;2023-12-14T08:46:00;50.00;;;33.67;;
58244;SDS011;44550;43.864;25.986;2023-12-14T08:50:07;52.50;;;38.20;;
58244;SDS011;44550;43.864;25.986;2023-12-14T08:54:12;45.72;;;32.15;;
58244;SDS011;44550;43.864;25.986;2023-12-14T08:58:16;42.90;;;28.77;;
58244;SDS011;44550;43.864;25.986;2023-12-14T09:02:45;53.33;;;33.72;;
58244;SDS011;44550;43.864;25.986;2023-12-14T09:11:23;44.28;;;32.13;;
58244;SDS011;44550;43.864;25.986;2023-12-14T09:21:03;45.72;;;28.23;;
58244;SDS011;44550;43.864;25.986;2023-12-14T09:31:09;39.00;;;24.02;;
58244;SDS011;44550;43.864;25.986;2023-12-14T09:35:20;51.00;;;29.55;;
58244;SDS011;44550;43.864;25.986;2023-12-14T09:39:40;48.38;;;31.27;;
58244;SDS011;44550;43.864;25.986;2023-12-14T17:39:10;9.10;;;5.93;;
58244;SDS011;44550;43.864;25.986;2023-12-14T17:55:07;9.25;;;6.93;;
58244;SDS011;44550;43.864;25.986;2023-12-14T21:58:52;5.35;;;4.22;;
58244;SDS011;44550;43.864;25.986;2023-12-14T22:04:48;5.05;;;4.00;;
58244;SDS011;44550;43.864;25.986;2023-12-14T22:09:59;6.78;;;4.05;;
58244;SDS011;44550;43.864;25.986;2023-12-14T22:15:39;7.78;;;4.22;;
58244;SDS011;44550;43.864;25.986;2023-12-14T22:21:19;5.82;;;3.22;;
58244;SDS011;44550;43.864;25.986;2023-12-14T22:26:45;6.22;;;4.38;;
58244;SDS011;44550;43.864;25.986;2023-12-14T22:39:39;4.63;;;3.20;;
58244;SDS011;44550;43.864;25.986;2023-12-14T22:42:51;3.83;;;3.13;;
58244;SDS011;44550;43.864;25.986;2023-12-14T22:48:12;7.32;;;3.42;;
58244;SDS011;44550;43.864;25.986;2023-12-14T22:53:04;5.72;;;3.38;;
58244;SDS011;44550;43.864;25.986;2023-12-14T22:58:37;4.82;;;3.30;;
58244;SDS011;44550;43.864;25.986;2023-12-14T23:08:46;7.07;;;4.07;;
58244;SDS011;44550;43.864;25.986;2023-12-14T23:16:23;4.57;;;3.88;;
